Meteo4 di Emilio Bellavite Il primo osservatorio Meteo di Verona  
 
sabato 21 ottobre 2017
 
 
dati in tempo reale
Di seguito i dati in tempo reale delle stazioni on line, suddivise per regione, della rete di Meteo4. Cliccando sul link della stazione, ove presente, si accederà al sito web personale.
Stazioni online
Regione -
Località Giorno Ora Temp. Umid. Relat. Dew Point Press. Atm. Velocità Vento Direz. Vento Precip. Temp.
Min
Temp.
Max
 
 
Regione ABRUZZO
Località Giorno Ora Temp. Umid. Relat. Dew Point Press. Atm. Velocità Vento Direz. Vento Precip. Temp.
Min
Temp.
Max
San Salvo3 (CH) 21/10/17 01.30 13.6 °C 92 % 12.3 °C 1018.6 hPa 0.0 Km/h S 0.0 mm  13.6 °C 15.6 °C
Vasto (CH) 20/10/17 22.48 15.4 °C 14 % -12.0 °C 1021.7 hPa 3.6 Km/h N 0.0 mm  12.9 °C 20.5 °C
 
 
Regione BASILICATA
Località Giorno Ora Temp. Umid. Relat. Dew Point Press. Atm. Velocità Vento Direz. Vento Precip. Temp.
Min
Temp.
Max
Miglionico (MT) 21/10/17 01.20 14.1 °C 92 % 12.8 °C 1019.2 hPa 0.0 Km/h --- 0.0 mm  14.1 °C 14.8 °C
 
 
Regione CALABRIA
Località Giorno Ora Temp. Umid. Relat. Dew Point Press. Atm. Velocità Vento Direz. Vento Precip. Temp.
Min
Temp.
Max
Bisignano (CS) 21/10/17 01.13 14.8 °C 76 % 10.6 °C 1021.9 hPa 0.7 Km/h E 0.0 mm  14.8 °C 15.5 °C
 
 
Regione CAMPANIA
Località Giorno Ora Temp. Umid. Relat. Dew Point Press. Atm. Velocità Vento Direz. Vento Precip. Temp.
Min
Temp.
Max
Torre Annunziata (NA) 21/10/17 01.15 16.1 °C 83 % 13.2 °C 1020.8 hPa 0.2 Km/h WSW 0.0 mm  16.0 °C 16.6 °C
 
 
Regione EMILIA ROMAGNA
Località Giorno Ora Temp. Umid. Relat. Dew Point Press. Atm. Velocità Vento Direz. Vento Precip. Temp.
Min
Temp.
Max
Bellaria Igea Marina (RN) 21/10/17 01.13 15.7 °C 88 % 13.7 °C 1020.2 hPa 0.0 Km/h SW 0.0 mm  15.7 °C 15.9 °C
Bellaria Igea Marina2 (RN) 21/10/17 01.13 15.8 °C 90 % 14.2 °C 1019.8 hPa 1.6 Km/h SW 0.0 mm  15.8 °C 16.2 °C
Bellaria Igea Marina3 (RN) 20/10/17 22.28 18.1 °C 75 % 13.6 °C 1018.1 hPa 0.0 Km/h NNE 0.0 mm  14.7 °C 19.3 °C
Carpi (MO) 21/10/17 01.13 10.8 °C 96 % 10.2 °C 1020.8 hPa 0.0 Km/h E 0.0 mm  9.8 °C 10.8 °C
Filo di Argenta (FE) 21/10/17 01.15 13.8 °C 90 % 12.2 °C 1021.4 hPa 6.3 Km/h NNW 0.0 mm  13.3 °C 13.8 °C
Masiera di Bagnacavallo (RA) 21/10/17 00.56 12.7 °C 91 % 11.3 °C 1021.1 hPa 3.7 Km/h NW 0.0 mm  12.7 °C 12.7 °C
Migliarino (FE) 21/10/17 01.30 15.3 °C 90 % 13.7 °C 1020.4 hPa 2.6 Km/h N 0.0 mm  15.3 °C 15.4 °C
Ponte San Pellegrino (MO) 21/10/17 01.28 11.6 °C 98 % 11.3 °C 1011.4 hPa 3.6 Km/h SW 0.0 mm  11.3 °C 11.6 °C
Riccione (RN) 21/10/17 00.45 14.8 °C 91 % 13.3 °C 1020.8 hPa 0.0 Km/h --- 0.0 mm  14.7 °C 15.8 °C
Rimini (RN) 21/10/17 01.10 14.2 °C 86 % 11.9 °C 1020.8 hPa 0.0 Km/h WSW 0.0 mm  14.2 °C 15.4 °C
Rimini Zona Palas (RN) 21/10/17 01.14 14.5 °C 92 % 13.3 °C 1020.9 hPa 0.0 Km/h WSW 0.0 mm  14.5 °C 14.7 °C
San Potito Lugo (RA) 16/10/17 16.20 31.1 °C 32 % 12.5 °C 1013.0 hPa 0.0 Km/h NW 0.0 mm  9.8 °C 32.9 °C
Santarcangelo di Romagna (RN) 21/10/17 01.31 13.2 °C 85 % 10.7 °C 1021.2 hPa 3.9 Km/h WNW 0.0 mm  12.8 °C 13.2 °C
Stiore - Monteveglio (BO) 21/10/17 01.30 9.4 °C 95 % 8.6 °C 1018.2 hPa 0.0 Km/h ESE 0.0 mm  9.3 °C 9.6 °C
 
 
Regione FRIULI V.G.
Località Giorno Ora Temp. Umid. Relat. Dew Point Press. Atm. Velocità Vento Direz. Vento Precip. Temp.
Min
Temp.
Max
Budoia (PN) 21/10/17 01.00 12.8 °C 90 % 11.2 °C 1020.9 hPa 1.6 Km/h WSW 0.0 mm  12.8 °C 12.9 °C
Fogliano Redipuglia (GO) 21/10/17 01.22 12.8 °C 89 % 11.1 °C 1020.9 hPa 3.2 Km/h SW 0.0 mm  12.7 °C 12.8 °C
Fontanafredda (PN) 21/10/17 01.14 11.8 °C 99 % 11.6 °C 1020.9 hPa 0.0 Km/h SSE 0.0 mm  11.7 °C 12.3 °C
Gorizia (GO) 21/10/17 01.14 15.2 °C 78 % 11.4 °C 1020.5 hPa 0.0 Km/h WNW 0.0 mm  15.2 °C 15.2 °C
Gradisca d'Isonzo (GO) 21/10/17 01.14 11.8 °C 92 % 10.5 °C 1022.1 hPa 2.5 Km/h NE 0.0 mm  11.8 °C 12.1 °C
Ovaro loc. Liariis (UD) 21/10/17 01.10 10.3 °C 93 % 9.2 °C 1022.0 hPa 0.0 Km/h --- 0.0 mm  10.2 °C 10.4 °C
Pordenone (PN) 21/10/17 01.10 12.2 °C 91 % 10.8 °C 1021.8 hPa 0.0 Km/h --- 0.0 mm  12.2 °C 12.7 °C
Sacile (PN) 21/10/17 01.15 11.7 °C 96 % 11.1 °C 1020.5 hPa 0.0 Km/h NNE 0.0 mm  11.7 °C 12.1 °C
Staranzano (GO) 21/10/17 01.20 12.9 °C 88 % 11.0 °C 1021.6 hPa 0.0 Km/h N 0.0 mm  12.9 °C 13.3 °C
 
 
Regione LAZIO
Località Giorno Ora Temp. Umid. Relat. Dew Point Press. Atm. Velocità Vento Direz. Vento Precip. Temp.
Min
Temp.
Max
Capodimonte (VT) 21/10/17 01.10 13.9 °C 94 % 12.9 °C 1022.1 hPa 0.0 Km/h N 0.0 mm  13.8 °C 14.8 °C
Caprarola Centro Storico (VT) 21/10/17 01.12 11.9 °C 96 % 11.3 °C 1021.0 hPa 0.0 Km/h W 0.0 mm  11.8 °C 13.1 °C
Civita Castellana (VT) 21/10/17 01.14 11.1 °C 85 % 8.7 °C 1021.5 hPa 0.6 Km/h NNW 0.0 mm  11.1 °C 11.9 °C
Marta (VT) 21/10/17 01.15 12.4 °C 92 % 11.1 °C 1019.7 hPa 1.9 Km/h SSW 0.0 mm  12.1 °C 13.1 °C
Pomezia (RM) 21/10/17 01.30 16.7 °C 91 % 15.2 °C 1019.7 hPa 3.2 Km/h NW 0.0 mm  16.6 °C 17.1 °C
Roma Prato della Signora (RM) 20/10/17 20.11 18.5 °C 69 % 12.7 °C 1019.9 hPa 0.0 Km/h WNW 0.0 mm  18.5 °C 23.6 °C
Ronciglione Centro (VT) 21/10/17 01.30 13.0 °C 77 % 9.1 °C 1022.0 hPa 0.0 Km/h NNW 0.0 mm  13.0 °C 13.9 °C
S. Lorenzo Nuovo (VT) 21/10/17 01.30 13.6 °C 82 % 10.6 °C 1020.0 hPa 0.0 Km/h NW 0.0 mm  13.1 °C 13.9 °C
Tuscania (VT) 20/10/17 16.30 23.6 °C 37 % 8.1 °C 1019.1 hPa 2.6 Km/h WSW 0.4 mm  11.7 °C 24.3 °C
Valentano (VT) 21/10/17 01.30 14.1 °C 92 % 12.8 °C 1019.7 hPa 0.0 Km/h N 0.3 mm  14.1 °C 14.6 °C
Viterbo Santa Barbara (VT) 20/10/17 22.30 13.9 °C 89 % 12.1 °C 1020.5 hPa 0.0 Km/h SW 0.3 mm  10.6 °C 21.8 °C
Vitorchiano Pallone (VT) 20/10/17 18.30 18.8 °C 66 % 12.3 °C 1018.6 hPa 8.0 Km/h SW 0.3 mm  11.2 °C 22.7 °C
 
 
Regione LIGURIA
Località Giorno Ora Temp. Umid. Relat. Dew Point Press. Atm. Velocità Vento Direz. Vento Precip. Temp.
Min
Temp.
Max
Arenzano (GE) 21/10/17 01.13 18.4 °C 68 % 12.4 °C 1019.9 hPa 0.0 Km/h NE 0.0 mm  17.8 °C 18.4 °C
Cosseria Lidora (SV) 21/10/17 01.15 14.3 °C 85 % 11.8 °C 1020.0 hPa 0.0 Km/h --- 0.0 mm  14.3 °C 14.4 °C
Genova Albaro (GE) 21/10/17 01.13 16.5 °C 64 % 9.7 °C 1026.0 hPa 4.5 Km/h N 0.0 mm  16.3 °C 16.6 °C
Genova Erzelli (GE) 21/10/17 01.17 18.1 °C 70 % 12.5 °C 1018.9 hPa 0.0 Km/h N 0.0 mm  17.2 °C 18.1 °C
Loano (SV) 21/10/17 01.15 19.1 °C 76 % 14.8 °C 1019.4 hPa 0.0 Km/h SE 0.0 mm  19.1 °C 19.2 °C
Ortonovo (SP) 21/10/17 01.30 18.1 °C 70 % 12.6 °C 1016.8 hPa 9.9 Km/h S 0.0 mm  16.8 °C 18.1 °C
Varese Ligure (SP) 21/10/17 01.30 11.5 °C 39 % -2.0 °C 1015.8 hPa 1.0 Km/h S 0.0 mm  11.0 °C 11.6 °C
 
 
Regione LOMBARDIA
Località Giorno Ora Temp. Umid. Relat. Dew Point Press. Atm. Velocità Vento Direz. Vento Precip. Temp.
Min
Temp.
Max
Besozzo (VA) 20/10/17 21.48 9.6 °C 93 % 8.5 °C 1020.8 hPa 0.0 Km/h --- 0.2 mm  7.9 °C 17.3 °C
Brebbia (VA) 20/10/17 23.20 11.7 °C 93 % 10.6 °C 1021.9 hPa 0.0 Km/h S 0.0 mm  9.4 °C 17.8 °C
Calcinato (BS) 20/10/17 00.35 11.9 °C 90 % 10.3 °C 1021.1 hPa 0.0 Km/h S 0.0 mm  11.8 °C 12.2 °C
Cassano Magnago (VA) 21/10/17 01.20 12.2 °C 94 % 11.2 °C 1020.5 hPa 0.0 Km/h SSE 0.0 mm  12.1 °C 12.2 °C
Cavaria con Premezzo (VA) 21/10/17 01.13 12.1 °C 95 % 11.1 °C 1020.5 hPa 1.0 Km/h E 0.0 mm  11.9 °C 12.1 °C
Dorno (PV) 21/10/17 01.13 13.5 °C 93 % 12.4 °C 1021.4 hPa 0.6 Km/h ESE 0.0 mm  13.5 °C 13.7 °C
Esine (BS) 21/10/17 01.11 10.6 °C 89 % 8.8 °C 1020.0 hPa 0.0 Km/h NE 0.0 mm  10.3 °C 10.7 °C
Gaggiano (MI) 21/10/17 01.14 12.8 °C 92 % 11.6 °C 1020.6 hPa 3.0 Km/h ESE 0.0 mm  12.8 °C 13.1 °C
Laxolo (BG) 21/10/17 01.16 10.2 °C 81 % 7.1 °C 1017.3 hPa 0.0 Km/h N 0.0 mm  6.9 °C 15.3 °C
Lesmo (MB) 21/10/17 01.15 11.9 °C 90 % 10.4 °C 1021.4 hPa 0.0 Km/h --- 0.0 mm  11.9 °C 12.2 °C
Lovere (BG) 20/10/17 22.55 13.3 °C 50 % 3.1 °C 1021.0 hPa 9.4 Km/h SSW 0.0 mm  9.9 °C 17.3 °C
Malnate San Salvatore (VA) 21/10/17 01.15 11.6 °C 95 % 10.8 °C 1021.7 hPa 0.0 Km/h --- 0.0 mm  11.5 °C 11.6 °C
Mezzana Bigli (PV) 21/10/17 01.30 12.4 °C 92 % 11.1 °C 1020.4 hPa 0.0 Km/h NNE 0.0 mm  12.3 °C 12.4 °C
Montagna in Valtellina (SO) 21/10/17 01.30 11.2 °C 78 % 7.5 °C 1021.4 hPa 0.0 Km/h WSW 0.0 mm  11.1 °C 11.8 °C
Morbegno (SO) 21/10/17 01.30 10.8 °C 86 % 8.6 °C 1022.3 hPa 0.0 Km/h SE 0.0 mm  10.7 °C 11.5 °C
Ostiano (CR) 21/10/17 01.30 11.7 °C 98 % 11.4 °C 1020.4 hPa 0.0 Km/h S 0.0 mm  11.6 °C 11.8 °C
Rivalta sul Mincio (MN) 21/10/17 01.13 10.7 °C 94 % 9.7 °C 1021.4 hPa 0.0 Km/h SSW 0.0 mm  10.6 °C 11.0 °C
 
 
Regione MARCHE
Località Giorno Ora Temp. Umid. Relat. Dew Point Press. Atm. Velocità Vento Direz. Vento Precip. Temp.
Min
Temp.
Max
Ancona (AN) 21/10/17 01.15 12.3 °C 97 % 11.9 °C 1021.6 hPa 0.0 Km/h --- 0.0 mm  12.2 °C 13.1 °C
Barbara (AN) 21/10/17 01.13 12.9 °C 88 % 11.0 °C 1023.5 hPa 9.7 Km/h WSW 0.0 mm  12.2 °C 12.9 °C
Ca' Gallo (PU) 21/10/17 01.22 12.0 °C 93 % 10.9 °C 1016.8 hPa 0.0 Km/h NW 0.0 mm  12.0 °C 13.0 °C
Montelabbate (PU) 21/10/17 01.23 12.9 °C 88 % 10.9 °C 1020.5 hPa 0.0 Km/h SSW 0.0 mm  12.9 °C 14.8 °C
San Benedetto del Tronto (AP) 20/10/17 19.01 17.3 °C 81 % 14.0 °C 1020.0 hPa 0.0 Km/h W 0.0 mm  13.9 °C 18.9 °C
 
 
Regione MOSELLE
Località Giorno Ora Temp. Umid. Relat. Dew Point Press. Atm. Velocità Vento Direz. Vento Precip. Temp.
Min
Temp.
Max
Seremange Erzange (Moselle) 21/10/17 01.30 7.8 °C 95 % 7.0 °C 1016.5 hPa 0.0 Km/h ENE 0.0 mm  8.1 °C 8.6 °C
 
 
Regione PIEMONTE
Località Giorno Ora Temp. Umid. Relat. Dew Point Press. Atm. Velocità Vento Direz. Vento Precip. Temp.
Min
Temp.
Max
Borgofranco d'Ivrea (TO) 21/10/17 01.13 11.1 °C 92 % 9.8 °C 1021.0 hPa 0.0 Km/h SW 0.0 mm  10.7 °C 11.1 °C
Magnano (BI) 21/10/17 01.14 9.0 °C 99 % 8.9 °C 1015.3 hPa 0.0 Km/h N 0.0 mm  9.0 °C 10.0 °C
Monasterolo Torinese (TO) 21/10/17 01.15 9.8 °C 89 % 8.1 °C 1018.0 hPa 0.0 Km/h --- 0.0 mm  9.8 °C 10.9 °C
Mongrando San Michele (BI) 21/10/17 01.10 8.2 °C 97 % 7.8 °C 1020.9 hPa 0.0 Km/h --- 0.0 mm  8.1 °C 8.4 °C
Muzzano (BI) 21/10/17 01.00 10.3 °C 87 % 8.2 °C 1019.6 hPa 0.0 Km/h --- 0.0 mm  10.3 °C 11.2 °C
Nichelino (TO) 21/10/17 01.20 11.7 °C 87 % 9.6 °C 1020.4 hPa 1.6 Km/h ESE 0.0 mm  11.6 °C 12.8 °C
Novara (NO) 21/10/17 01.10 12.1 °C 89 % 10.4 °C 1020.7 hPa 0.0 Km/h --- 0.0 mm  11.9 °C 12.1 °C
Ostana (CN) 20/10/17 21.18 11.5 °C 58 % 3.5 °C 1018.7 hPa 1.6 Km/h WNW 0.0 mm  4.9 °C 12.2 °C
Parella (TO) 21/10/17 01.22 10.3 °C 96 % 9.7 °C 1019.2 hPa 0.0 Km/h SSE 0.0 mm  10.3 °C 10.5 °C
Pecetto Torinese (TO) 21/10/17 01.27 10.4 °C 92 % 9.2 °C 1020.9 hPa 3.2 Km/h SE 0.0 mm  10.4 °C 11.4 °C
Pila Valsesia (VC) 21/10/17 01.15 8.9 °C 86 % 6.7 °C 1018.4 hPa 0.0 Km/h --- 0.0 mm  8.4 °C 9.7 °C
Piovà Massaia (AT) 21/10/17 01.30 10.4 °C 97 % 9.9 °C 1020.0 hPa 1.4 Km/h E 0.0 mm  10.1 °C 10.4 °C
Pozzolo Formigaro (AL) 21/10/17 01.16 11.5 °C 98 % 11.2 °C 1021.5 hPa 0.0 Km/h WSW 0.0 mm  11.3 °C 11.5 °C
Pray (BI) 21/10/17 01.30 8.7 °C 95 % 7.9 °C 1020.8 hPa 0.0 Km/h --- 0.0 mm  8.7 °C 9.4 °C
Rivalba (TO) 21/10/17 01.30 19.8 °C 66 % 13.3 °C 1025.3 hPa 0.0 Km/h N 0.0 mm  19.8 °C 19.8 °C
Soriso (NO) 21/10/17 01.10 10.2 °C 96 % 9.6 °C 1021.5 hPa 0.0 Km/h --- 0.0 mm  9.8 °C 10.2 °C
Torino Regio Parco (TO) 21/10/17 01.31 11.6 °C 94 % 10.6 °C 1022.9 hPa 3.7 Km/h ENE 0.0 mm  11.2 °C 11.6 °C
Valenza (AL) 21/10/17 01.21 12.1 °C 93 % 10.9 °C 1020.2 hPa 6.4 Km/h NNE 0.0 mm  12.1 °C 12.4 °C
Viozene Toria (CN) 21/10/17 01.30 7.4 °C 90 % 5.9 °C 1010.9 hPa 1.0 Km/h N 0.0 mm  7.3 °C 8.1 °C
 
 
Regione PUGLIA
Località Giorno Ora Temp. Umid. Relat. Dew Point Press. Atm. Velocità Vento Direz. Vento Precip. Temp.
Min
Temp.
Max
Acquaviva delle Fonti (BA) 21/10/17 01.13 13.4 °C 96 % 12.8 °C 1020.7 hPa 0.0 Km/h SW 0.0 mm  12.9 °C 13.9 °C
S. Giovanni Rotondo (FG) 21/10/17 01.15 13.9 °C 86 % 11.6 °C 1021.0 hPa 1.6 Km/h N 0.0 mm  13.6 °C 14.2 °C
Taranto (TA) 21/10/17 01.15 18.2 °C 85 % 15.7 °C 1017.1 hPa 0.0 Km/h NNW 0.0 mm  17.7 °C 18.3 °C
Torremaggiore (FG) 21/10/17 01.31 16.7 °C 90 % 15.1 °C 1026.6 hPa 8.0 Km/h N 0.0 mm  16.7 °C 16.7 °C
Vieste (FG) 21/10/17 01.31 16.2 °C 83 % 13.3 °C 1021.5 hPa 10.9 Km/h SW 0.0 mm  16.2 °C 17.3 °C
 
 
Regione SARDEGNA
Località Giorno Ora Temp. Umid. Relat. Dew Point Press. Atm. Velocità Vento Direz. Vento Precip. Temp.
Min
Temp.
Max
Bitti (NU) 17/10/17 13.49 23.8 °C 44 % 10.8 °C 1024.4 hPa 4.0 Km/h E 0.0 mm  12.7 °C 24.5 °C
Bonorva (SS) 21/10/17 01.15 17.7 °C 76 % 13.4 °C 1019.7 hPa 1.6 Km/h SSE 0.0 mm  17.6 °C 18.4 °C
Borore (NU) 21/10/17 01.14 15.7 °C 82 % 12.7 °C 1019.3 hPa 5.2 Km/h NNW 0.0 mm  15.7 °C 16.6 °C
Iglesias (CI) 21/10/17 01.23 17.1 °C 85 % 14.6 °C 1021.6 hPa 0.0 Km/h NNE 0.0 mm  17.1 °C 18.2 °C
Oristano (OR) 21/10/17 01.30 18.1 °C 90 % 16.4 °C 1019.1 hPa 0.0 Km/h ENE 0.0 mm  17.8 °C 18.6 °C
Orosei (NU) 21/10/17 01.16 18.8 °C 92 % 17.4 °C 1019.7 hPa 1.6 Km/h ESE 0.0 mm  18.7 °C 19.9 °C
San Vito (CA) 21/10/17 01.31 17.3 °C 90 % 15.6 °C 1014.8 hPa 0.0 Km/h N 0.0 mm  17.3 °C 17.8 °C
Sinnai (CA) 20/10/17 23.55 19.1 °C 74 % 14.4 °C 1020.1 hPa 0.0 Km/h N 0.0 mm  19.1 °C 26.6 °C
 
 
Regione SICILIA
Località Giorno Ora Temp. Umid. Relat. Dew Point Press. Atm. Velocità Vento Direz. Vento Precip. Temp.
Min
Temp.
Max
Barcellona P.G. Centro (ME) 21/10/17 01.13 18.2 °C 73 % 13.3 °C 1019.5 hPa 0.0 Km/h ESE 0.0 mm  18.2 °C 18.8 °C
Barcellona Pozzo di Gotto (ME) 21/10/17 01.13 18.5 °C 73 % 13.6 °C 1019.0 hPa 0.0 Km/h SSE 0.0 mm  18.4 °C 18.9 °C
Brolo c/da Parrazzà (ME) 21/10/17 01.20 19.3 °C 62 % 11.9 °C 1019.6 hPa 2.0 Km/h ESE 0.0 mm  19.0 °C 19.7 °C
Buccheri (SR) 18/10/17 01.05 12.8 °C 67 % 6.8 °C 1020.0 hPa 0.0 Km/h SW 0.0 mm  12.1 °C 13.7 °C
Caltabellotta (AG) 21/10/17 01.10 16.3 °C 83 % 13.4 °C 1019.2 hPa 2.0 Km/h SSE 0.0 mm  16.2 °C 16.3 °C
Cammarata (AG) 21/10/17 01.13 17.3 °C 57 % 8.7 °C 1017.0 hPa 6.1 Km/h SW 0.0 mm  17.1 °C 17.4 °C
Cefalù (PA) 21/10/17 01.06 19.7 °C 69 % 13.9 °C 1016.1 hPa 2.0 Km/h SE 0.0 mm  19.6 °C 20.5 °C
Mirabella Imbaccari (CT) 21/10/17 01.18 17.4 °C 94 % 16.5 °C 1020.1 hPa 3.7 Km/h NE 0.0 mm  17.4 °C 17.5 °C
Pace del Mela (ME) 21/10/17 01.31 17.4 °C 85 % 14.9 °C 1020.5 hPa 0.0 Km/h SW 0.0 mm  17.2 °C 18.0 °C
Pedara (CT) 21/10/17 00.30 13.6 °C 63 % 6.7 °C 1019.5 hPa 0.0 Km/h NNW 0.0 mm  13.6 °C 14.9 °C
Piraino contr. Fiumara (ME) 21/10/17 01.15 16.7 °C 75 % 12.3 °C 1019.5 hPa 2.0 Km/h NE 0.0 mm  16.7 °C 17.1 °C
San Cataldo (CL) 21/10/17 00.16 16.9 °C 90 % 15.2 °C 1018.2 hPa 4.3 Km/h ESE 0.0 mm  16.9 °C 16.9 °C
San Giovanni la Punta Trappeto (CT) 21/10/17 01.15 17.2 °C 86 % 14.8 °C 1020.7 hPa 6.4 Km/h NNW 0.0 mm  17.2 °C 17.4 °C
 
 
Regione TOSCANA
Località Giorno Ora Temp. Umid. Relat. Dew Point Press. Atm. Velocità Vento Direz. Vento Precip. Temp.
Min
Temp.
Max
Avenza-Carrara (MS) 21/10/17 01.10 15.6 °C 69 % 9.9 °C 1022.3 hPa 0.0 Km/h --- 0.0 mm  15.5 °C 15.8 °C
Carmignano loc. Seano (PO) 21/10/17 01.14 11.3 °C 87 % 9.2 °C 1021.4 hPa 0.0 Km/h WNW 0.0 mm  11.3 °C 11.8 °C
Castelnuovo V.C. (PI) 21/10/17 01.11 11.7 °C 97 % 11.3 °C 1019.8 hPa 0.0 Km/h NE 0.0 mm  11.4 °C 12.3 °C
Isola d'Elba Marina di Campo (LI) 20/10/17 10.00 19.0 °C 89 % 17.1 °C 592.1 hPa 4.8 Km/h SSE 0.0 mm  17.7 °C 20.0 °C
Massarosa (LU) 21/10/17 01.13 16.4 °C 84 % 13.7 °C 1008.3 hPa 2.5 Km/h E 0.0 mm  16.4 °C 16.8 °C
Montespertoli (FI) 21/10/17 01.24 15.9 °C 93 % 14.8 °C 1022.9 hPa 0.0 Km/h SW 0.0 mm  15.8 °C 16.1 °C
Montopoli in val d'Arno Loc. Capanne (PI) 21/10/17 01.30 12.4 °C 95 % 11.7 °C 1020.8 hPa 3.6 Km/h ESE 0.0 mm  0.0 °C 0.0 °C
Pisa zona I Passi (PI) 21/10/17 01.30 15.4 °C 84 % 12.7 °C 1021.3 hPa 0.0 Km/h NE 0.0 mm  15.2 °C 15.4 °C
Reggello (FI) 21/10/17 01.30 12.9 °C 84 % 10.3 °C 1024.0 hPa 8.0 Km/h SSO 0.0 mm  12.9 °C 15.4 °C
Torri (FI) 18/10/17 13.15 19.8 °C 56 % 10.8 °C 1019.5 hPa 0.0 Km/h --- 0.0 mm  6.9 °C 19.8 °C
Torrita di Siena (SI) 21/10/17 01.10 10.6 °C 92 % 9.4 °C 1022.3 hPa 0.0 Km/h --- 0.0 mm  10.6 °C 12.7 °C
 
 
Regione TRENTINO A. A.
Località Giorno Ora Temp. Umid. Relat. Dew Point Press. Atm. Velocità Vento Direz. Vento Precip. Temp.
Min
Temp.
Max
Ala (TN) 21/10/17 01.13 12.7 °C 86 % 10.4 °C 1020.7 hPa 0.0 Km/h SE 0.0 mm  12.7 °C 12.9 °C
Avio (TN) 21/10/17 01.14 13.4 °C 83 % 10.6 °C 1020.4 hPa 0.0 Km/h SSE 0.0 mm  13.4 °C 13.8 °C
Besenello (TN) 21/10/17 01.13 11.9 °C 81 % 8.8 °C 1021.6 hPa 0.0 Km/h NNE 0.0 mm  11.7 °C 12.3 °C
Borgo Valsugana (TN) 21/10/17 01.21 10.3 °C 86 % 8.1 °C 1018.8 hPa 1.4 Km/h W 0.0 mm  9.6 °C 10.3 °C
Calliano (TN) 21/10/17 01.13 11.3 °C 86 % 9.1 °C 1020.7 hPa 0.0 Km/h NE 0.0 mm  11.3 °C 12.6 °C
Fiavè loc. Ballino (TN) 21/10/17 01.13 10.1 °C 83 % 7.3 °C 1018.1 hPa 2.8 Km/h N 0.0 mm  10.0 °C 10.1 °C
Gardolo (TN) 21/10/17 01.13 12.2 °C 86 % 9.9 °C 1021.7 hPa 0.0 Km/h NNE 0.0 mm  12.3 °C 12.6 °C
Lavis (TN) 21/10/17 00.10 12.6 °C 79 % 8.9 °C 1021.0 hPa 3.2 Km/h NE 0.0 mm  12.6 °C 12.6 °C
Margone (TN) 21/10/17 01.10 8.2 °C 97 % 7.7 °C 1022.8 hPa 0.0 Km/h SSW 0.0 mm  8.1 °C 8.4 °C
Martignano (TN) 21/10/17 01.15 12.2 °C 84 % 9.5 °C 1019.8 hPa 1.6 Km/h SE 0.0 mm  11.7 °C 12.2 °C
Massone di Arco (TN) 21/10/17 01.30 14.0 °C 86 % 11.7 °C 1020.3 hPa 0.0 Km/h NE 0.0 mm  14.0 °C 14.3 °C
Padergnone (TN) 21/10/17 01.30 13.8 °C 89 % 12.0 °C 1021.4 hPa 0.0 Km/h S 0.0 mm  13.8 °C 14.1 °C
Taio Mollaro (TN) 21/10/17 01.30 7.6 °C 91 % 6.2 °C 1022.4 hPa 0.0 Km/h S 0.2 mm  4.6 °C 18.4 °C
Trambileno (TN) 21/10/17 01.18 9.6 °C 90 % 8.3 °C 1024.3 hPa 0.0 Km/h N 0.0 mm  9.6 °C 9.8 °C
Trento (TN) 21/10/17 01.31 12.8 °C 80 % 9.4 °C 1020.5 hPa 1.6 Km/h S 0.0 mm  12.7 °C 12.9 °C
Vattaro fraz. Pian dei Pradi (TN) 21/10/17 01.29 8.4 °C 94 % 7.5 °C 1021.8 hPa 0.0 Km/h SSW 0.0 mm  8.2 °C 8.5 °C
 
 
Regione UMBRIA
Località Giorno Ora Temp. Umid. Relat. Dew Point Press. Atm. Velocità Vento Direz. Vento Precip. Temp.
Min
Temp.
Max
Castiglione del Lago (PG) 21/10/17 01.10 8.9 °C 77 % 5.1 °C 1023.8 hPa 0.0 Km/h --- 0.0 mm  8.9 °C 10.0 °C
Foligno (PG) 21/10/17 01.10 11.6 °C 79 % 8.0 °C 1021.5 hPa 3.2 Km/h ENE 0.0 mm  11.6 °C 12.7 °C
Orvieto (TR) 21/10/17 01.16 10.3 °C 89 % 8.6 °C 1019.3 hPa 0.0 Km/h ESE 0.0 mm  10.2 °C 11.8 °C
Todi (PG) 21/10/17 01.15 15.1 °C 71 % 9.8 °C 1020.6 hPa 0.0 Km/h N 0.0 mm  14.7 °C 15.4 °C
 
 
Regione VALLE DAOSTA
Località Giorno Ora Temp. Umid. Relat. Dew Point Press. Atm. Velocità Vento Direz. Vento Precip. Temp.
Min
Temp.
Max
Colle del Piccolo San Bernardo La Thuile (AO) 21/10/17 01.16 5.9 °C 73 % 1.7 °C 1020.2 hPa 12.9 Km/h SW 0.0 mm  5.9 °C 6.9 °C
 
 
Regione VENETO
Località Giorno Ora Temp. Umid. Relat. Dew Point Press. Atm. Velocità Vento Direz. Vento Precip. Temp.
Min
Temp.
Max
Abano (PD) 21/10/17 01.15 14.2 °C 94 % 13.3 °C 1020.3 hPa 0.0 Km/h NE 0.0 mm  14.1 °C 14.2 °C
Alleghe (BL) 21/10/17 01.13 5.8 °C 86 % 3.6 °C 1007.3 hPa 0.0 Km/h ENE 0.0 mm  5.8 °C 6.4 °C
Alleghe Lago (BL) 21/10/17 01.13 5.3 °C 88 % 3.5 °C 1020.9 hPa 2.0 Km/h NE 0.0 mm  5.3 °C 5.9 °C
Arquà Polesine (RO) 21/10/17 01.12 14.8 °C 93 % 13.7 °C 1022.4 hPa 0.0 Km/h NE 0.0 mm  14.7 °C 14.8 °C
Arzignano loc. Castello (VI) 20/10/17 23.00 12.6 °C 91 % 11.2 °C 1020.9 hPa 0.0 Km/h --- 0.2 mm  9.4 °C 15.3 °C
Arzignano Pugnello (VI) 21/10/17 01.13 12.0 °C 89 % 10.6 °C 1019.3 hPa 0.0 Km/h W 0.0 mm  11.8 °C 12.0 °C
Arzignano San Bortolo (VI) 21/10/17 01.20 13.1 °C 87 % 10.9 °C 1018.8 hPa 0.0 Km/h W 0.0 mm  12.8 °C 13.2 °C
Arzignano Tezze (VI) 21/10/17 01.22 12.4 °C 95 % 11.7 °C 1020.5 hPa 0.0 Km/h NW 0.0 mm  12.4 °C 12.8 °C
Asiago Rifugio Val Formica (VI) 21/10/17 01.22 4.6 °C 62 % -2.1 °C 1019.5 hPa 0.0 Km/h N 0.0 mm  3.7 °C 4.6 °C
Badia Calavena loc. San Valentino (VR) 21/10/17 01.13 8.9 °C 95 % 8.1 °C 1018.6 hPa 1.6 Km/h S 0.0 mm  8.4 °C 8.9 °C
Bardolino (VR) 21/10/17 01.14 12.8 °C 88 % 11.1 °C 1013.8 hPa 0.0 Km/h SW 0.0 mm  12.8 °C 13.1 °C
Bassano del Grappa (VI) 20/10/17 08.20 9.6 °C 90 % 8.0 °C 1006.1 hPa 0.0 Km/h --- 0.0 mm  9.5 °C 11.2 °C
Belluno Castion (BL) 21/10/17 01.00 10.6 °C 93 % 9.5 °C 1020.6 hPa 0.0 Km/h --- 0.0 mm  10.4 °C 10.7 °C
Bresega (PD) 20/10/17 21.44 13.3 °C 89 % 11.7 °C 1020.9 hPa 0.0 Km/h NE 0.0 mm  9.5 °C 17.3 °C
Brugine2 (PD) 21/10/17 01.09 13.0 °C 84 % 10.4 °C 1021.4 hPa 0.0 Km/h ESE 0.0 mm  12.9 °C 13.1 °C
Camposampiero (PD) 21/10/17 01.19 12.1 °C 97 % 11.6 °C 1022.0 hPa 0.0 Km/h NW 0.0 mm  12.1 °C 12.1 °C
Caprino (VR) 21/10/17 01.14 12.7 °C 89 % 11.0 °C 1019.2 hPa 0.0 Km/h NE 0.0 mm  12.7 °C 13.0 °C
Carceri (PD) 21/10/17 01.12 13.3 °C 91 % 12.2 °C 1020.5 hPa 0.0 Km/h NNW 0.0 mm  13.3 °C 13.4 °C
Cartigliano (VI) 21/10/17 01.13 11.9 °C 96 % 11.3 °C 1020.3 hPa 0.0 Km/h E 0.0 mm  11.7 °C 11.9 °C
Cartura (PD) 21/10/17 01.14 13.2 °C 91 % 11.7 °C 1020.8 hPa 0.0 Km/h NNW 0.0 mm  13.2 °C 13.3 °C
Casotto (VI) 21/10/17 01.17 10.6 °C 87 % 8.3 °C 1019.5 hPa 0.0 Km/h NNE 0.0 mm  10.6 °C 11.2 °C
Castel d'Azzano (VR) 21/10/17 01.05 13.2 °C 90 % 11.6 °C 1047.0 hPa 0.0 Km/h --- 0.0 mm  12.4 °C 13.2 °C
Castelfranco Veneto (TV) 20/10/17 11.00 11.8 °C 100 % 11.8 °C 1021.0 hPa 0.0 Km/h --- 0.2 mm  7.8 °C 11.8 °C
Castelfranco Veneto2 (TV) 21/10/17 01.14 12.2 °C 96 % 11.6 °C 1021.2 hPa 0.0 Km/h SE 0.0 mm  11.9 °C 12.2 °C
Castelgomberto (VI) 20/10/17 03.20 10.0 °C 92 % 8.8 °C 1017.9 hPa 0.2 Km/h NW 0.2 mm  9.9 °C 10.6 °C
Cavazzale (VI) 20/10/17 23.15 12.6 °C 93 % 11.5 °C 1021.5 hPa 0.0 Km/h --- 0.0 mm  7.4 °C 15.2 °C
Cerea (VR) 21/10/17 00.40 12.7 °C 93 % 11.6 °C 1021.2 hPa 3.2 Km/h ENE 0.0 mm  12.4 °C 12.8 °C
Cerea2 (VR) 21/10/17 01.20 13.4 °C 86 % 11.1 °C 1019.2 hPa 0.0 Km/h N 0.0 mm  12.7 °C 13.4 °C
Cima Grappa (TV) 21/10/17 01.13 8.4 °C 38 % -5.1 °C 1020.1 hPa 7.0 Km/h NW 0.0 mm  8.2 °C 8.5 °C
Cismon del Grappa loc. Corlo (VI) 21/10/17 01.14 10.6 °C 93 % 9.5 °C 1021.9 hPa 0.0 Km/h NNE 0.0 mm  10.4 °C 10.6 °C
Cittadella (PD) 20/10/17 20.41 14.1 °C 86 % 11.8 °C 1020.0 hPa 0.0 Km/h SE 0.0 mm  8.2 °C 15.3 °C
Cogollo del Cengio (VI) 21/10/17 01.11 11.3 °C 99 % 11.1 °C 1019.6 hPa 3.7 Km/h NW 0.0 mm  11.3 °C 11.8 °C
Colle S. Lucia Posalz (BL) 21/10/17 01.14 7.6 °C 67 % 1.9 °C 1027.8 hPa 0.0 Km/h S 0.0 mm  7.6 °C 7.9 °C
Cologna Veneta Sant'Andrea (VR) 21/10/17 01.15 13.8 °C 82 % 10.8 °C 1021.1 hPa 0.0 Km/h --- 0.0 mm  13.6 °C 13.9 °C
Colognola ai Colli (VR) 21/10/17 00.45 12.9 °C 93 % 11.8 °C 1022.0 hPa 0.0 Km/h --- 0.0 mm  12.9 °C 13.0 °C
Contrada Dosso Gervasio (VR) 21/10/17 01.00 7.9 °C 96 % 7.2 °C 1019.7 hPa 0.0 Km/h SW 0.0 mm  6.9 °C 7.9 °C
Corrubio di S. Anna d'Alfaedo (VR) 18/10/17 07.20 11.1 °C 78 % 7.4 °C 1020.0 hPa 0.0 Km/h --- 0.0 mm  10.9 °C 12.3 °C
Costa di Vittorio Veneto (TV) 21/10/17 01.21 12.7 °C 90 % 11.1 °C 1019.9 hPa 0.0 Km/h NE 0.0 mm  12.6 °C 12.7 °C
Crespano del Grappa (TV) 21/10/17 01.22 11.6 °C 82 % 8.6 °C 1020.5 hPa 3.7 Km/h N 0.0 mm  11.6 °C 12.7 °C
Dossobuono (VR) 21/10/17 01.13 13.3 °C 88 % 11.3 °C 1022.4 hPa 0.0 Km/h WNW 0.0 mm  12.7 °C 13.3 °C
Falzè di Piave (TV) 20/10/17 22.02 11.7 °C 96 % 11.1 °C 1022.4 hPa 0.0 Km/h --- 0.2 mm  5.8 °C 14.2 °C
Farra di Soligo (TV) 21/10/17 01.13 11.9 °C 93 % 10.8 °C 1018.0 hPa 0.0 Km/h N 0.0 mm  11.9 °C 12.4 °C
Favaro Veneto (VE) 21/10/17 01.10 12.6 °C 88 % 10.7 °C 1021.5 hPa 0.0 Km/h --- 0.0 mm  12.6 °C 12.7 °C
Feltre Celarda (BL) 21/10/17 01.13 10.3 °C 91 % 8.9 °C 1018.9 hPa 0.0 Km/h NNE 0.0 mm  10.2 °C 10.4 °C
Ferrara di M.B. (VR) 20/10/17 12.55 12.4 °C 65 % 6.0 °C 1015.7 hPa 3.2 Km/h S 0.0 mm  5.8 °C 12.6 °C
Gallio (VI) 21/10/17 01.20 5.0 °C 97 % 4.6 °C 1020.5 hPa 0.0 Km/h N 0.0 mm  4.8 °C 5.2 °C
Jesolo (VE) 19/10/17 09.15 -67.8 °C 0 % 0.0 °C 1016.4 hPa 1.6 Km/h NNE 0.0 mm  -67.8 °C -67.8 °C
Legnago (VR) 21/10/17 01.15 13.4 °C 94 % 12.4 °C 1021.3 hPa 0.0 Km/h --- 0.0 mm  12.9 °C 13.4 °C
Lugagnano (VR) 21/10/17 01.14 12.4 °C 91 % 11.1 °C 1019.9 hPa 0.0 Km/h WSW 0.0 mm  11.7 °C 12.4 °C
Lusiana Sciessere (VI) 21/10/17 01.26 8.5 °C 94 % 7.6 °C 1021.6 hPa 1.4 Km/h NNW 0.0 mm  8.1 °C 8.6 °C
Marano Vicentino2 (VI) 21/10/17 01.10 12.3 °C 92 % 11.0 °C 1020.3 hPa 0.0 Km/h W 0.0 mm  12.2 °C 12.3 °C
Marostica Valle San Floriano (VI) 21/10/17 01.13 11.6 °C 94 % 10.6 °C 1022.1 hPa 0.0 Km/h N 0.0 mm  11.6 °C 12.1 °C
Mazzurega (VR) 21/10/17 01.23 10.8 °C 93 % 9.7 °C 1022.6 hPa 0.0 Km/h NW 0.0 mm  10.6 °C 11.2 °C
Merlara (PD) 21/10/17 01.15 12.6 °C 92 % 11.3 °C 1020.5 hPa 1.6 Km/h NNE 0.0 mm  12.1 °C 12.6 °C
Montebello Vicentino loc. Selva (VI) 21/10/17 01.30 12.8 °C 79 % 9.2 °C 1022.0 hPa 0.6 Km/h ESE 0.0 mm  12.8 °C 13.0 °C
Montecchio Maggiore La Valle (VI) 21/10/17 01.23 12.8 °C 1 % -42.2 °C 1012.1 hPa 0.0 Km/h N 0.0 mm  12.8 °C 13.1 °C
Montecchio Maggiore Sant'Urbano (VI) 21/10/17 01.27 12.2 °C 84 % 9.5 °C 1022.6 hPa 0.0 Km/h NE 0.0 mm  12.2 °C 12.5 °C
Monteforte d'Alpone (VR) 21/10/17 01.15 13.3 °C 89 % 11.5 °C 1019.7 hPa 1.6 Km/h ENE 0.0 mm  13.2 °C 13.4 °C
Montorso Vicentino (VI) 21/10/17 01.30 11.8 °C 91 % 10.4 °C 1021.0 hPa 0.0 Km/h NW 0.0 mm  11.7 °C 11.8 °C
Onara extraurbana (PD) 18/10/17 07.21 9.1 °C 89 % 7.4 °C 1015.7 hPa 0.0 Km/h WSW 0.0 mm  9.1 °C 13.9 °C
Oppeano (VR) 20/10/17 21.50 13.2 °C 87 % 11.0 °C 1018.0 hPa 0.0 Km/h --- 0.0 mm  10.1 °C 17.1 °C
Pastrengo (VR) 21/10/17 01.26 12.2 °C 93 % 11.1 °C -3386.0 hPa 0.0 Km/h SE 0.0 mm  11.9 °C 12.2 °C
Pastrengo Corné (VR) 21/10/17 01.15 11.8 °C 93 % 10.7 °C 1019.7 hPa 0.0 Km/h W 0.0 mm  11.8 °C 12.1 °C
Pedemonte (VR) 21/10/17 01.15 12.1 °C 89 % 10.4 °C 1020.9 hPa 0.0 Km/h N 0.0 mm  11.9 °C 12.3 °C
Pescantina Are (VR) 21/10/17 01.24 12.4 °C 91 % 11.0 °C 1020.5 hPa 0.0 Km/h SE 0.0 mm  12.3 °C 12.6 °C
Pian di Castagné (VR) 21/10/17 01.19 12.1 °C 87 % 9.9 °C 1020.5 hPa 0.0 Km/h ESE 0.0 mm  12.1 °C 12.4 °C
Pojana Maggiore Cagnano (VI) 21/10/17 01.29 13.9 °C 90 % 12.3 °C 1020.9 hPa 0.0 Km/h NW 0.0 mm  13.4 °C 13.9 °C
Ponte San Nicolò (PD) 21/10/17 01.27 13.9 °C 90 % 12.3 °C 1020.9 hPa 0.0 Km/h N 0.0 mm  13.9 °C 14.0 °C
Rifugio Primaneve (VR) 21/10/17 01.27 5.8 °C 93 % 4.7 °C 1019.2 hPa 29.0 Km/h SW 0.0 mm  5.8 °C 6.2 °C
Romano d'Ezzelino Fellette (VI) 21/10/17 01.31 12.5 °C 87 % 10.4 °C 1024.1 hPa 3.0 Km/h NNW 0.0 mm  12.1 °C 12.5 °C
Rosolina (RO) 21/10/17 01.20 14.6 °C 95 % 13.8 °C 1021.6 hPa 1.6 Km/h NNW 0.0 mm  14.2 °C 14.6 °C
S. Giovanni Ilarione2 (VR) 21/10/17 01.15 12.9 °C 89 % 11.1 °C 1020.7 hPa 0.0 Km/h WNW 0.0 mm  12.4 °C 12.9 °C
S. Giovanni Lupatoto (VR) 21/10/17 01.10 13.8 °C 90 % 12.2 °C 1021.5 hPa 0.0 Km/h --- 0.0 mm  13.7 °C 13.8 °C
S. Lorenzo di Vittorio Veneto (TV) 21/10/17 01.30 12.0 °C 86 % 9.7 °C 1021.6 hPa 0.0 Km/h N 0.0 mm  11.9 °C 12.1 °C
S. Maria di Zevio Loc. 3 Ponti (VR) 21/10/17 01.31 13.1 °C 93 % 12.2 °C 1022.9 hPa 1.0 Km/h SSE 0.0 mm  13.1 °C 13.6 °C
S. Maria Maddalena (RO) 21/10/17 01.25 14.2 °C 91 % 12.8 °C 1020.2 hPa 0.0 Km/h NE 0.0 mm  13.9 °C 14.2 °C
S. Martino Lupari (PD) 21/10/17 01.10 12.1 °C 97 % 11.6 °C 1021.8 hPa 0.0 Km/h --- 0.0 mm  11.7 °C 12.1 °C
S. Rocco di Villabalzana (VI) 21/10/17 01.33 12.5 °C 93 % 11.7 °C 1020.8 hPa 0.0 Km/h E 0.0 mm  12.5 °C 12.6 °C
S. Zeno di Mont. Prada (VR) 21/10/17 00.50 9.1 °C 76 % 5.0 °C 1019.4 hPa 0.0 Km/h --- 0.0 mm  7.3 °C 9.1 °C
Salcedo (VI) 21/10/17 01.30 10.9 °C 82 % 7.9 °C 1019.8 hPa 0.7 Km/h SE 0.0 mm  10.6 °C 11.3 °C
San Nazario (VI) 21/10/17 01.21 13.2 °C 85 % 10.7 °C 1021.2 hPa 3.5 Km/h NW 0.0 mm  12.9 °C 13.2 °C
San Pietro in Cariano (VR) 21/10/17 01.29 12.7 °C 93 % 11.6 °C 1022.6 hPa 1.6 Km/h N 0.0 mm  11.5 °C 12.7 °C
San Zeno di Mont. Loc. Castello (VR) 21/10/17 01.30 9.2 °C 88 % 7.2 °C 1020.5 hPa 3.0 Km/h W 0.0 mm  9.2 °C 9.6 °C
Schio (VI) 21/10/17 01.00 12.6 °C 90 % 11.0 °C 1022.5 hPa 0.0 Km/h NW 0.0 mm  12.6 °C 12.8 °C
Schio Monte Magré (VI) 21/10/17 01.30 10.9 °C 93 % 9.8 °C 0.0 hPa 0.0 Km/h NW 0.0 mm  10.9 °C 11.3 °C
Soave Borgo Bassano (VR) 21/10/17 01.15 13.6 °C 91 % 12.2 °C 1021.5 hPa 0.0 Km/h WNW 0.0 mm  13.5 °C 13.8 °C
Sona Loc. La Colombara (VR) 21/10/17 01.00 10.6 °C 96 % 9.4 °C 1018.3 hPa 0.0 Km/h SSW 0.0 mm  9.7 °C 10.6 °C
Tombolo (PD) 21/10/17 01.31 11.9 °C 96 % 11.3 °C 1021.8 hPa 0.0 Km/h NE 0.0 mm  11.7 °C 12.0 °C
Tregnago Loc. Centro (VR) 21/10/17 01.15 11.3 °C 90 % 9.8 °C 1015.1 hPa 1.6 Km/h SSE 0.0 mm  11.0 °C 11.3 °C
Treviso (TV) 21/10/17 01.29 10.9 °C 98 % 10.6 °C 1022.0 hPa 0.0 Km/h S 0.0 mm  10.1 °C 10.9 °C
Val Lastaro (VI) 20/10/17 22.39 5.8 °C 98 % 5.6 °C 1022.4 hPa 0.0 Km/h W 0.2 mm  0.8 °C 12.1 °C
Valdobbiadene San Pietro di Barbozza (TV) 21/10/17 01.10 12.1 °C 82 % 9.1 °C 1020.3 hPa 8.0 Km/h N 0.0 mm  11.9 °C 12.6 °C
Valli del Pasubio loc. Gisbenti (VI) 21/10/17 01.30 11.8 °C 64 % 5.2 °C 977.0 hPa 0.0 Km/h --- 0.0 mm  11.8 °C 12.2 °C
Vazzo Roveré Veronese (VR) 21/10/17 01.31 7.7 °C 94 % 6.8 °C 1018.1 hPa 3.2 Km/h WNW 0.0 mm  7.1 °C 8.3 °C
Verona Bgo Venezia (iz3sly) (VR) 21/10/17 01.22 13.2 °C 87 % 11.1 °C 1020.2 hPa 0.0 Km/h W 0.0 mm  12.5 °C 13.2 °C
Verona L'Arena (VR) 15/10/17 11.02 18.1 °C 66 % 11.7 °C 1028.7 hPa 3.0 Km/h ESE 0.0 mm  12.5 °C 18.8 °C
Vestenanova (VR) 21/10/17 01.31 10.8 °C 96 % 10.2 °C 1027.0 hPa 2.5 Km/h E 0.0 mm  10.8 °C 10.8 °C
Vicenza Campedello (VI) 21/10/17 01.36 12.4 °C 97 % 12.2 °C 1022.0 hPa 0.0 Km/h ESE 0.0 mm  12.4 °C 12.5 °C
Vicenza Moracchino (VI) 21/10/17 01.31 13.1 °C 95 % 12.3 °C 1020.2 hPa 1.6 Km/h SE 0.0 mm  12.9 °C 13.1 °C
Vicenza Pecori Giraldi (VI) 21/10/17 01.20 14.4 °C 100 % 14.4 °C 1014.1 hPa 0.0 Km/h N 0.0 mm  14.3 °C 14.4 °C
Vicenza S. Lazzaro (VI) 21/10/17 01.30 13.7 °C 89 % 12.2 °C 1020.4 hPa 0.0 Km/h N 0.0 mm  13.7 °C 13.7 °C
Vicenza San Gaetano (VI) 20/10/17 22.40 13.2 °C 94 % 12.3 °C 1021.4 hPa 0.0 Km/h SE 0.2 mm  8.3 °C 15.7 °C
Vidor (TV) 21/10/17 01.16 10.4 °C 91 % 9.0 °C 1019.8 hPa 0.0 Km/h W 0.0 mm  10.4 °C 11.6 °C
Vigasio (VR) 21/10/17 01.10 13.3 °C 91 % 11.8 °C 1019.5 hPa 1.6 Km/h ESE 0.0 mm  12.5 °C 13.3 °C
Vittorio Veneto (TV) 21/10/17 00.30 12.1 °C 88 % 10.1 °C 1020.9 hPa 0.0 Km/h ENE 0.0 mm  12.1 °C 12.2 °C
Vittorio Veneto Parco Fenderl (TV) 21/10/17 00.20 12.2 °C 86 % 9.9 °C 1021.9 hPa 0.0 Km/h NNE 0.0 mm  12.2 °C 12.2 °C
Volpago del Montello (TV) 21/10/17 01.00 10.5 °C 96 % 9.9 °C 1021.1 hPa 0.0 Km/h --- 0.3 mm  10.4 °C 10.9 °C
 
 
 
(*) = Precipitazioni nelle ultime 24h.
Dati non aggiornati nell'ultima ora.
   
In collaborazione con:
 
Top! Top!